sensor_id;sensor_type;location;lat;lon;timestamp;P1;durP1;ratioP1;P2;durP2;ratioP2
19111;SDS011;9688;51.906;8.376;2022-12-07T00:00:05;40.30;;;21.27;;
19111;SDS011;9688;51.906;8.376;2022-12-07T00:02:52;41.20;;;22.47;;
19111;SDS011;9688;51.906;8.376;2022-12-07T00:05:37;40.47;;;22.17;;
19111;SDS011;9688;51.906;8.376;2022-12-07T00:08:23;43.07;;;22.27;;
19111;SDS011;9688;51.906;8.376;2022-12-07T00:11:09;40.10;;;22.13;;
19111;SDS011;9688;51.906;8.376;2022-12-07T00:13:57;41.10;;;21.47;;
19111;SDS011;9688;51.906;8.376;2022-12-07T00:16:44;38.20;;;20.80;;
19111;SDS011;9688;51.906;8.376;2022-12-07T00:19:30;39.73;;;21.53;;
19111;SDS011;9688;51.906;8.376;2022-12-07T00:22:16;34.80;;;19.83;;
19111;SDS011;9688;51.906;8.376;2022-12-07T00:25:02;38.20;;;20.10;;
19111;SDS011;9688;51.906;8.376;2022-12-07T00:27:48;38.23;;;21.43;;
19111;SDS011;9688;51.906;8.376;2022-12-07T00:30:35;37.50;;;19.93;;
19111;SDS011;9688;51.906;8.376;2022-12-07T00:33:21;35.77;;;20.03;;
19111;SDS011;9688;51.906;8.376;2022-12-07T00:36:07;35.90;;;20.03;;
19111;SDS011;9688;51.906;8.376;2022-12-07T00:38:53;35.57;;;19.70;;
19111;SDS011;9688;51.906;8.376;2022-12-07T00:41:40;34.63;;;19.13;;
19111;SDS011;9688;51.906;8.376;2022-12-07T00:44:26;31.50;;;18.73;;
19111;SDS011;9688;51.906;8.376;2022-12-07T00:47:13;34.80;;;19.83;;
19111;SDS011;9688;51.906;8.376;2022-12-07T00:49:58;29.57;;;18.77;;
19111;SDS011;9688;51.906;8.376;2022-12-07T00:52:46;35.77;;;20.03;;
19111;SDS011;9688;51.906;8.376;2022-12-07T00:55:32;30.93;;;18.30;;
19111;SDS011;9688;51.906;8.376;2022-12-07T00:58:18;32.63;;;18.60;;
19111;SDS011;9688;51.906;8.376;2022-12-07T01:01:04;32.53;;;18.73;;
19111;SDS011;9688;51.906;8.376;2022-12-07T01:03:53;29.13;;;17.87;;
19111;SDS011;9688;51.906;8.376;2022-12-07T01:06:38;28.43;;;17.70;;
19111;SDS011;9688;51.906;8.376;2022-12-07T01:09:24;28.93;;;17.00;;
19111;SDS011;9688;51.906;8.376;2022-12-07T01:12:09;29.10;;;17.43;;
19111;SDS011;9688;51.906;8.376;2022-12-07T01:14:54;27.93;;;17.40;;
19111;SDS011;9688;51.906;8.376;2022-12-07T01:17:40;26.93;;;16.90;;
19111;SDS011;9688;51.906;8.376;2022-12-07T01:20:27;27.40;;;17.30;;
19111;SDS011;9688;51.906;8.376;2022-12-07T01:23:12;27.57;;;17.07;;
19111;SDS011;9688;51.906;8.376;2022-12-07T01:25:58;25.33;;;16.10;;
19111;SDS011;9688;51.906;8.376;2022-12-07T01:28:46;24.87;;;15.83;;
19111;SDS011;9688;51.906;8.376;2022-12-07T01:31:31;30.37;;;17.17;;
19111;SDS011;9688;51.906;8.376;2022-12-07T01:34:17;28.80;;;17.30;;
19111;SDS011;9688;51.906;8.376;2022-12-07T01:37:04;27.07;;;16.77;;
19111;SDS011;9688;51.906;8.376;2022-12-07T01:39:49;28.80;;;16.03;;
19111;SDS011;9688;51.906;8.376;2022-12-07T01:42:35;24.63;;;15.23;;
19111;SDS011;9688;51.906;8.376;2022-12-07T01:48:28;24.77;;;15.03;;
19111;SDS011;9688;51.906;8.376;2022-12-07T01:51:18;23.80;;;14.27;;
19111;SDS011;9688;51.906;8.376;2022-12-07T01:54:04;24.57;;;15.13;;
19111;SDS011;9688;51.906;8.376;2022-12-07T01:56:51;21.33;;;13.87;;
19111;SDS011;9688;51.906;8.376;2022-12-07T01:59:39;19.67;;;12.77;;
19111;SDS011;9688;51.906;8.376;2022-12-07T02:02:31;20.30;;;13.90;;
19111;SDS011;9688;51.906;8.376;2022-12-07T02:05:19;22.43;;;13.80;;
19111;SDS011;9688;51.906;8.376;2022-12-07T02:08:05;25.37;;;14.00;;
19111;SDS011;9688;51.906;8.376;2022-12-07T02:10:52;19.13;;;13.43;;
19111;SDS011;9688;51.906;8.376;2022-12-07T02:13:38;21.83;;;13.60;;
19111;SDS011;9688;51.906;8.376;2022-12-07T02:16:29;23.87;;;13.93;;
19111;SDS011;9688;51.906;8.376;2022-12-07T02:19:30;19.67;;;12.43;;
19111;SDS011;9688;51.906;8.376;2022-12-07T02:26:33;20.07;;;12.37;;
19111;SDS011;9688;51.906;8.376;2022-12-07T02:29:43;18.07;;;11.73;;
19111;SDS011;9688;51.906;8.376;2022-12-07T02:32:35;19.27;;;12.27;;
19111;SDS011;9688;51.906;8.376;2022-12-07T02:35:28;20.10;;;11.73;;
19111;SDS011;9688;51.906;8.376;2022-12-07T02:38:18;16.73;;;10.97;;
19111;SDS011;9688;51.906;8.376;2022-12-07T02:41:09;17.20;;;10.17;;
19111;SDS011;9688;51.906;8.376;2022-12-07T02:43:59;21.40;;;11.43;;
19111;SDS011;9688;51.906;8.376;2022-12-07T02:46:49;16.13;;;9.67;;
19111;SDS011;9688;51.906;8.376;2022-12-07T02:49:38;16.10;;;9.67;;
19111;SDS011;9688;51.906;8.376;2022-12-07T02:52:33;16.33;;;9.40;;
19111;SDS011;9688;51.906;8.376;2022-12-07T02:55:19;19.17;;;8.20;;
19111;SDS011;9688;51.906;8.376;2022-12-07T02:58:17;15.20;;;9.00;;
19111;SDS011;9688;51.906;8.376;2022-12-07T03:01:15;12.90;;;8.90;;
19111;SDS011;9688;51.906;8.376;2022-12-07T03:04:18;15.80;;;8.37;;
19111;SDS011;9688;51.906;8.376;2022-12-07T03:07:16;13.23;;;9.00;;
19111;SDS011;9688;51.906;8.376;2022-12-07T03:10:11;14.80;;;8.27;;
19111;SDS011;9688;51.906;8.376;2022-12-07T03:13:05;12.27;;;7.70;;
19111;SDS011;9688;51.906;8.376;2022-12-07T03:16:01;11.23;;;7.63;;
19111;SDS011;9688;51.906;8.376;2022-12-07T03:18:50;13.50;;;8.20;;
19111;SDS011;9688;51.906;8.376;2022-12-07T03:21:42;14.73;;;7.27;;
19111;SDS011;9688;51.906;8.376;2022-12-07T03:24:33;10.90;;;7.00;;
19111;SDS011;9688;51.906;8.376;2022-12-07T03:27:25;16.23;;;8.20;;
19111;SDS011;9688;51.906;8.376;2022-12-07T03:30:15;11.77;;;7.50;;
19111;SDS011;9688;51.906;8.376;2022-12-07T03:33:04;12.13;;;7.67;;
19111;SDS011;9688;51.906;8.376;2022-12-07T03:35:58;14.13;;;7.47;;
19111;SDS011;9688;51.906;8.376;2022-12-07T03:38:52;13.10;;;7.53;;
19111;SDS011;9688;51.906;8.376;2022-12-07T03:41:43;12.03;;;6.93;;
19111;SDS011;9688;51.906;8.376;2022-12-07T03:44:29;13.87;;;7.57;;
19111;SDS011;9688;51.906;8.376;2022-12-07T03:47:16;17.40;;;8.23;;
19111;SDS011;9688;51.906;8.376;2022-12-07T03:50:15;12.47;;;7.90;;
19111;SDS011;9688;51.906;8.376;2022-12-07T03:53:11;16.57;;;8.30;;
19111;SDS011;9688;51.906;8.376;2022-12-07T03:56:03;14.03;;;7.50;;
19111;SDS011;9688;51.906;8.376;2022-12-07T03:58:50;12.73;;;8.57;;
19111;SDS011;9688;51.906;8.376;2022-12-07T04:01:38;13.17;;;7.83;;
19111;SDS011;9688;51.906;8.376;2022-12-07T04:04:23;15.13;;;9.10;;
19111;SDS011;9688;51.906;8.376;2022-12-07T04:07:10;17.17;;;8.93;;
19111;SDS011;9688;51.906;8.376;2022-12-07T04:09:56;15.30;;;9.20;;
19111;SDS011;9688;51.906;8.376;2022-12-07T04:12:43;17.17;;;8.87;;
19111;SDS011;9688;51.906;8.376;2022-12-07T04:15:30;15.97;;;8.67;;
19111;SDS011;9688;51.906;8.376;2022-12-07T04:18:15;14.57;;;8.57;;
19111;SDS011;9688;51.906;8.376;2022-12-07T04:21:00;17.87;;;8.57;;
19111;SDS011;9688;51.906;8.376;2022-12-07T04:23:46;20.20;;;9.37;;
19111;SDS011;9688;51.906;8.376;2022-12-07T04:26:31;16.47;;;8.80;;
19111;SDS011;9688;51.906;8.376;2022-12-07T04:29:19;17.50;;;9.50;;
19111;SDS011;9688;51.906;8.376;2022-12-07T04:32:05;15.00;;;8.73;;
19111;SDS011;9688;51.906;8.376;2022-12-07T04:34:50;16.63;;;8.47;;
19111;SDS011;9688;51.906;8.376;2022-12-07T04:37:36;14.00;;;8.80;;
19111;SDS011;9688;51.906;8.376;2022-12-07T04:40:22;16.57;;;8.80;;
19111;SDS011;9688;51.906;8.376;2022-12-07T04:43:08;17.27;;;9.07;;
19111;SDS011;9688;51.906;8.376;2022-12-07T04:45:55;15.23;;;9.00;;
19111;SDS011;9688;51.906;8.376;2022-12-07T04:48:40;15.57;;;9.23;;
19111;SDS011;9688;51.906;8.376;2022-12-07T04:51:27;17.23;;;9.17;;
19111;SDS011;9688;51.906;8.376;2022-12-07T04:54:14;17.43;;;9.10;;
19111;SDS011;9688;51.906;8.376;2022-12-07T04:57:00;16.70;;;8.97;;
19111;SDS011;9688;51.906;8.376;2022-12-07T04:59:46;22.90;;;9.80;;
19111;SDS011;9688;51.906;8.376;2022-12-07T05:02:32;18.50;;;9.70;;
19111;SDS011;9688;51.906;8.376;2022-12-07T05:05:18;15.13;;;8.73;;
19111;SDS011;9688;51.906;8.376;2022-12-07T05:08:03;16.77;;;9.43;;
19111;SDS011;9688;51.906;8.376;2022-12-07T05:10:49;18.00;;;9.10;;
19111;SDS011;9688;51.906;8.376;2022-12-07T05:13:35;15.97;;;9.43;;
19111;SDS011;9688;51.906;8.376;2022-12-07T05:16:21;18.23;;;9.43;;
19111;SDS011;9688;51.906;8.376;2022-12-07T05:19:08;15.33;;;8.60;;
19111;SDS011;9688;51.906;8.376;2022-12-07T05:21:54;16.03;;;8.53;;
19111;SDS011;9688;51.906;8.376;2022-12-07T05:24:39;14.13;;;8.27;;
19111;SDS011;9688;51.906;8.376;2022-12-07T05:27:25;17.30;;;9.40;;
19111;SDS011;9688;51.906;8.376;2022-12-07T05:30:11;15.53;;;8.70;;
19111;SDS011;9688;51.906;8.376;2022-12-07T05:32:58;15.67;;;8.63;;
19111;SDS011;9688;51.906;8.376;2022-12-07T05:35:46;18.37;;;8.90;;
19111;SDS011;9688;51.906;8.376;2022-12-07T05:38:31;21.80;;;9.13;;
19111;SDS011;9688;51.906;8.376;2022-12-07T05:41:18;17.33;;;9.20;;
19111;SDS011;9688;51.906;8.376;2022-12-07T05:44:24;14.23;;;9.07;;
19111;SDS011;9688;51.906;8.376;2022-12-07T05:47:10;14.80;;;8.10;;
19111;SDS011;9688;51.906;8.376;2022-12-07T05:49:56;15.50;;;8.30;;
19111;SDS011;9688;51.906;8.376;2022-12-07T05:52:43;20.00;;;9.30;;
19111;SDS011;9688;51.906;8.376;2022-12-07T05:55:29;15.53;;;8.57;;
19111;SDS011;9688;51.906;8.376;2022-12-07T05:58:15;14.80;;;7.87;;
19111;SDS011;9688;51.906;8.376;2022-12-07T06:01:18;16.40;;;8.37;;
19111;SDS011;9688;51.906;8.376;2022-12-07T06:04:03;14.50;;;8.10;;
19111;SDS011;9688;51.906;8.376;2022-12-07T06:06:49;13.87;;;8.07;;
19111;SDS011;9688;51.906;8.376;2022-12-07T06:09:36;19.10;;;8.40;;
19111;SDS011;9688;51.906;8.376;2022-12-07T06:12:21;19.40;;;8.20;;
19111;SDS011;9688;51.906;8.376;2022-12-07T06:15:19;14.10;;;8.03;;
19111;SDS011;9688;51.906;8.376;2022-12-07T06:18:07;14.23;;;9.00;;
19111;SDS011;9688;51.906;8.376;2022-12-07T06:20:52;18.37;;;8.57;;
19111;SDS011;9688;51.906;8.376;2022-12-07T06:23:38;23.03;;;8.63;;
19111;SDS011;9688;51.906;8.376;2022-12-07T06:26:25;15.40;;;8.40;;
19111;SDS011;9688;51.906;8.376;2022-12-07T06:29:11;15.73;;;9.07;;
19111;SDS011;9688;51.906;8.376;2022-12-07T06:31:57;17.40;;;8.40;;
19111;SDS011;9688;51.906;8.376;2022-12-07T06:34:43;17.40;;;9.07;;
19111;SDS011;9688;51.906;8.376;2022-12-07T06:37:30;19.93;;;9.77;;
19111;SDS011;9688;51.906;8.376;2022-12-07T06:40:16;14.50;;;9.37;;
19111;SDS011;9688;51.906;8.376;2022-12-07T06:43:03;17.87;;;8.70;;
19111;SDS011;9688;51.906;8.376;2022-12-07T06:45:53;18.87;;;8.90;;
19111;SDS011;9688;51.906;8.376;2022-12-07T06:48:40;18.90;;;9.43;;
19111;SDS011;9688;51.906;8.376;2022-12-07T06:51:26;18.20;;;8.80;;
19111;SDS011;9688;51.906;8.376;2022-12-07T06:54:12;16.90;;;8.97;;
19111;SDS011;9688;51.906;8.376;2022-12-07T06:56:59;22.37;;;9.67;;
19111;SDS011;9688;51.906;8.376;2022-12-07T06:59:49;15.90;;;9.30;;
19111;SDS011;9688;51.906;8.376;2022-12-07T07:02:39;19.47;;;9.33;;
19111;SDS011;9688;51.906;8.376;2022-12-07T07:05:26;15.23;;;8.47;;
19111;SDS011;9688;51.906;8.376;2022-12-07T07:08:12;18.57;;;9.67;;
19111;SDS011;9688;51.906;8.376;2022-12-07T07:10:58;16.37;;;8.93;;
19111;SDS011;9688;51.906;8.376;2022-12-07T07:13:44;15.77;;;9.13;;
19111;SDS011;9688;51.906;8.376;2022-12-07T07:16:31;15.60;;;8.33;;
19111;SDS011;9688;51.906;8.376;2022-12-07T07:19:17;18.73;;;9.13;;
19111;SDS011;9688;51.906;8.376;2022-12-07T07:22:02;20.13;;;8.20;;
19111;SDS011;9688;51.906;8.376;2022-12-07T07:24:49;18.77;;;8.53;;
19111;SDS011;9688;51.906;8.376;2022-12-07T07:27:39;20.90;;;9.17;;
19111;SDS011;9688;51.906;8.376;2022-12-07T07:30:27;17.83;;;8.77;;
19111;SDS011;9688;51.906;8.376;2022-12-07T07:33:15;19.60;;;9.13;;
19111;SDS011;9688;51.906;8.376;2022-12-07T07:36:01;17.40;;;7.87;;
19111;SDS011;9688;51.906;8.376;2022-12-07T07:38:46;16.17;;;7.63;;
19111;SDS011;9688;51.906;8.376;2022-12-07T07:41:32;20.03;;;8.60;;
19111;SDS011;9688;51.906;8.376;2022-12-07T07:44:19;21.97;;;8.23;;
19111;SDS011;9688;51.906;8.376;2022-12-07T07:47:04;16.53;;;7.70;;
19111;SDS011;9688;51.906;8.376;2022-12-07T07:49:52;19.30;;;7.27;;
19111;SDS011;9688;51.906;8.376;2022-12-07T07:52:39;14.53;;;7.67;;
19111;SDS011;9688;51.906;8.376;2022-12-07T07:55:27;15.97;;;7.23;;
19111;SDS011;9688;51.906;8.376;2022-12-07T07:58:13;19.33;;;7.30;;
19111;SDS011;9688;51.906;8.376;2022-12-07T08:01:03;15.80;;;7.03;;
19111;SDS011;9688;51.906;8.376;2022-12-07T08:03:49;11.37;;;6.73;;
19111;SDS011;9688;51.906;8.376;2022-12-07T08:06:36;17.00;;;7.23;;
19111;SDS011;9688;51.906;8.376;2022-12-07T08:09:21;14.30;;;6.93;;
19111;SDS011;9688;51.906;8.376;2022-12-07T08:12:07;14.93;;;7.33;;
19111;SDS011;9688;51.906;8.376;2022-12-07T08:14:52;15.53;;;7.93;;
19111;SDS011;9688;51.906;8.376;2022-12-07T08:17:38;16.33;;;7.87;;
19111;SDS011;9688;51.906;8.376;2022-12-07T08:20:24;12.40;;;6.67;;
19111;SDS011;9688;51.906;8.376;2022-12-07T08:23:11;20.87;;;8.20;;
19111;SDS011;9688;51.906;8.376;2022-12-07T08:25:59;16.00;;;7.63;;
19111;SDS011;9688;51.906;8.376;2022-12-07T08:28:46;17.17;;;7.23;;
19111;SDS011;9688;51.906;8.376;2022-12-07T08:31:32;19.77;;;7.00;;
19111;SDS011;9688;51.906;8.376;2022-12-07T08:34:17;18.80;;;7.50;;
19111;SDS011;9688;51.906;8.376;2022-12-07T08:37:03;17.30;;;7.67;;
19111;SDS011;9688;51.906;8.376;2022-12-07T08:39:51;14.17;;;7.17;;
19111;SDS011;9688;51.906;8.376;2022-12-07T08:42:42;18.90;;;7.57;;
19111;SDS011;9688;51.906;8.376;2022-12-07T08:45:29;17.70;;;7.17;;
19111;SDS011;9688;51.906;8.376;2022-12-07T08:48:19;12.43;;;6.40;;
19111;SDS011;9688;51.906;8.376;2022-12-07T08:51:08;17.00;;;6.63;;
19111;SDS011;9688;51.906;8.376;2022-12-07T08:53:53;14.27;;;5.80;;
19111;SDS011;9688;51.906;8.376;2022-12-07T08:56:42;10.77;;;5.50;;
19111;SDS011;9688;51.906;8.376;2022-12-07T08:59:28;12.40;;;5.27;;
19111;SDS011;9688;51.906;8.376;2022-12-07T09:02:16;12.60;;;5.67;;
19111;SDS011;9688;51.906;8.376;2022-12-07T09:05:02;16.17;;;7.47;;
19111;SDS011;9688;51.906;8.376;2022-12-07T09:07:49;13.13;;;5.50;;
19111;SDS011;9688;51.906;8.376;2022-12-07T09:10:39;15.83;;;5.70;;
19111;SDS011;9688;51.906;8.376;2022-12-07T09:13:25;13.00;;;5.50;;
19111;SDS011;9688;51.906;8.376;2022-12-07T09:16:13;11.90;;;6.10;;
19111;SDS011;9688;51.906;8.376;2022-12-07T09:19:04;15.03;;;5.77;;
19111;SDS011;9688;51.906;8.376;2022-12-07T09:21:51;13.70;;;5.53;;
19111;SDS011;9688;51.906;8.376;2022-12-07T09:24:36;10.60;;;5.80;;
19111;SDS011;9688;51.906;8.376;2022-12-07T09:27:22;13.90;;;5.53;;
19111;SDS011;9688;51.906;8.376;2022-12-07T09:30:10;12.57;;;5.10;;
19111;SDS011;9688;51.906;8.376;2022-12-07T09:32:56;13.00;;;5.03;;
19111;SDS011;9688;51.906;8.376;2022-12-07T09:35:46;11.23;;;4.87;;
19111;SDS011;9688;51.906;8.376;2022-12-07T09:38:32;10.17;;;4.80;;
19111;SDS011;9688;51.906;8.376;2022-12-07T09:41:19;7.63;;;4.70;;
19111;SDS011;9688;51.906;8.376;2022-12-07T09:44:09;10.13;;;4.70;;
19111;SDS011;9688;51.906;8.376;2022-12-07T09:47:03;7.93;;;4.27;;
19111;SDS011;9688;51.906;8.376;2022-12-07T09:49:49;6.57;;;4.10;;
19111;SDS011;9688;51.906;8.376;2022-12-07T09:52:35;8.00;;;4.30;;
19111;SDS011;9688;51.906;8.376;2022-12-07T09:55:22;11.73;;;3.80;;
19111;SDS011;9688;51.906;8.376;2022-12-07T09:58:11;7.70;;;4.10;;
19111;SDS011;9688;51.906;8.376;2022-12-07T10:01:08;11.03;;;5.50;;
19111;SDS011;9688;51.906;8.376;2022-12-07T10:04:00;11.30;;;4.60;;
19111;SDS011;9688;51.906;8.376;2022-12-07T10:06:55;19.53;;;4.77;;
19111;SDS011;9688;51.906;8.376;2022-12-07T10:09:40;9.37;;;4.43;;
19111;SDS011;9688;51.906;8.376;2022-12-07T10:12:30;10.07;;;4.10;;
19111;SDS011;9688;51.906;8.376;2022-12-07T10:15:40;7.00;;;3.60;;
19111;SDS011;9688;51.906;8.376;2022-12-07T10:18:32;9.03;;;3.57;;
19111;SDS011;9688;51.906;8.376;2022-12-07T10:21:22;6.63;;;3.37;;
19111;SDS011;9688;51.906;8.376;2022-12-07T10:24:13;8.97;;;3.30;;
19111;SDS011;9688;51.906;8.376;2022-12-07T10:27:00;10.23;;;3.60;;
19111;SDS011;9688;51.906;8.376;2022-12-07T10:29:48;8.27;;;3.60;;
19111;SDS011;9688;51.906;8.376;2022-12-07T10:32:37;7.93;;;3.30;;
19111;SDS011;9688;51.906;8.376;2022-12-07T10:35:24;6.93;;;3.30;;
19111;SDS011;9688;51.906;8.376;2022-12-07T10:38:16;8.60;;;3.60;;
19111;SDS011;9688;51.906;8.376;2022-12-07T10:41:05;10.90;;;3.30;;
19111;SDS011;9688;51.906;8.376;2022-12-07T10:43:52;8.10;;;3.40;;
19111;SDS011;9688;51.906;8.376;2022-12-07T10:46:46;6.17;;;3.10;;
19111;SDS011;9688;51.906;8.376;2022-12-07T10:49:55;8.80;;;3.10;;
19111;SDS011;9688;51.906;8.376;2022-12-07T10:53:06;5.63;;;3.00;;
19111;SDS011;9688;51.906;8.376;2022-12-07T11:02:45;6.67;;;3.10;;
19111;SDS011;9688;51.906;8.376;2022-12-07T11:05:49;8.90;;;3.50;;
19111;SDS011;9688;51.906;8.376;2022-12-07T11:08:47;7.57;;;2.63;;
19111;SDS011;9688;51.906;8.376;2022-12-07T11:11:44;4.63;;;2.80;;
19111;SDS011;9688;51.906;8.376;2022-12-07T11:14:42;9.57;;;3.20;;
19111;SDS011;9688;51.906;8.376;2022-12-07T11:17:40;6.40;;;3.17;;
19111;SDS011;9688;51.906;8.376;2022-12-07T11:20:36;10.77;;;3.40;;
19111;SDS011;9688;51.906;8.376;2022-12-07T11:23:42;7.23;;;2.87;;
19111;SDS011;9688;51.906;8.376;2022-12-07T11:26:38;10.93;;;4.00;;
19111;SDS011;9688;51.906;8.376;2022-12-07T11:32:50;9.30;;;3.43;;
19111;SDS011;9688;51.906;8.376;2022-12-07T11:35:46;8.23;;;3.40;;
19111;SDS011;9688;51.906;8.376;2022-12-07T11:38:41;6.90;;;3.40;;
19111;SDS011;9688;51.906;8.376;2022-12-07T11:41:33;9.60;;;3.20;;
19111;SDS011;9688;51.906;8.376;2022-12-07T11:44:25;6.43;;;3.20;;
19111;SDS011;9688;51.906;8.376;2022-12-07T11:47:17;7.23;;;3.53;;
19111;SDS011;9688;51.906;8.376;2022-12-07T11:50:16;4.83;;;2.90;;
19111;SDS011;9688;51.906;8.376;2022-12-07T11:53:15;7.77;;;3.53;;
19111;SDS011;9688;51.906;8.376;2022-12-07T11:56:10;11.67;;;4.40;;
19111;SDS011;9688;51.906;8.376;2022-12-07T11:59:01;8.87;;;3.23;;
19111;SDS011;9688;51.906;8.376;2022-12-07T12:01:56;11.20;;;3.20;;
19111;SDS011;9688;51.906;8.376;2022-12-07T12:04:50;8.30;;;3.50;;
19111;SDS011;9688;51.906;8.376;2022-12-07T12:07:42;13.20;;;3.47;;
19111;SDS011;9688;51.906;8.376;2022-12-07T12:10:32;8.83;;;3.97;;
19111;SDS011;9688;51.906;8.376;2022-12-07T12:13:35;5.30;;;3.63;;
19111;SDS011;9688;51.906;8.376;2022-12-07T12:16:54;9.30;;;3.70;;
19111;SDS011;9688;51.906;8.376;2022-12-07T12:20:00;7.77;;;3.30;;
19111;SDS011;9688;51.906;8.376;2022-12-07T12:23:01;12.40;;;4.80;;
19111;SDS011;9688;51.906;8.376;2022-12-07T12:25:57;6.10;;;3.37;;
19111;SDS011;9688;51.906;8.376;2022-12-07T12:28:51;8.97;;;3.20;;
19111;SDS011;9688;51.906;8.376;2022-12-07T12:31:39;9.07;;;3.20;;
19111;SDS011;9688;51.906;8.376;2022-12-07T12:34:31;8.57;;;3.80;;
19111;SDS011;9688;51.906;8.376;2022-12-07T12:37:39;9.70;;;3.53;;
19111;SDS011;9688;51.906;8.376;2022-12-07T12:40:39;8.00;;;2.87;;
19111;SDS011;9688;51.906;8.376;2022-12-07T12:43:43;7.53;;;3.70;;
19111;SDS011;9688;51.906;8.376;2022-12-07T12:46:36;9.20;;;3.60;;
19111;SDS011;9688;51.906;8.376;2022-12-07T12:49:36;6.80;;;3.10;;
19111;SDS011;9688;51.906;8.376;2022-12-07T12:55:49;8.37;;;2.80;;
19111;SDS011;9688;51.906;8.376;2022-12-07T12:59:22;8.97;;;3.00;;
19111;SDS011;9688;51.906;8.376;2022-12-07T13:02:20;9.07;;;3.07;;
19111;SDS011;9688;51.906;8.376;2022-12-07T13:05:18;7.70;;;2.67;;
19111;SDS011;9688;51.906;8.376;2022-12-07T13:08:10;5.83;;;3.17;;
19111;SDS011;9688;51.906;8.376;2022-12-07T13:11:15;8.27;;;2.97;;
19111;SDS011;9688;51.906;8.376;2022-12-07T13:17:59;4.43;;;3.07;;
19111;SDS011;9688;51.906;8.376;2022-12-07T13:20:48;7.67;;;2.70;;
19111;SDS011;9688;51.906;8.376;2022-12-07T13:23:36;9.07;;;2.93;;
19111;SDS011;9688;51.906;8.376;2022-12-07T13:26:24;12.87;;;4.50;;
19111;SDS011;9688;51.906;8.376;2022-12-07T13:29:21;6.70;;;2.80;;
19111;SDS011;9688;51.906;8.376;2022-12-07T13:32:16;6.67;;;3.13;;
19111;SDS011;9688;51.906;8.376;2022-12-07T13:38:18;9.73;;;3.20;;
19111;SDS011;9688;51.906;8.376;2022-12-07T13:41:12;9.17;;;2.97;;
19111;SDS011;9688;51.906;8.376;2022-12-07T13:44:00;8.20;;;2.40;;
19111;SDS011;9688;51.906;8.376;2022-12-07T13:46:50;14.30;;;2.80;;
19111;SDS011;9688;51.906;8.376;2022-12-07T13:49:46;7.67;;;3.03;;
19111;SDS011;9688;51.906;8.376;2022-12-07T13:52:33;11.40;;;3.37;;
19111;SDS011;9688;51.906;8.376;2022-12-07T13:55:30;9.67;;;3.50;;
19111;SDS011;9688;51.906;8.376;2022-12-07T13:58:16;5.03;;;3.43;;
19111;SDS011;9688;51.906;8.376;2022-12-07T14:01:02;5.10;;;3.10;;
19111;SDS011;9688;51.906;8.376;2022-12-07T14:03:48;12.40;;;3.70;;
19111;SDS011;9688;51.906;8.376;2022-12-07T14:06:34;5.50;;;2.40;;
19111;SDS011;9688;51.906;8.376;2022-12-07T14:09:20;5.10;;;2.90;;
19111;SDS011;9688;51.906;8.376;2022-12-07T14:12:11;8.77;;;3.10;;
19111;SDS011;9688;51.906;8.376;2022-12-07T14:14:59;7.40;;;2.80;;
19111;SDS011;9688;51.906;8.376;2022-12-07T14:17:50;8.23;;;2.90;;
19111;SDS011;9688;51.906;8.376;2022-12-07T14:20:39;6.23;;;2.40;;
19111;SDS011;9688;51.906;8.376;2022-12-07T14:23:29;6.07;;;2.50;;
19111;SDS011;9688;51.906;8.376;2022-12-07T14:26:18;10.83;;;3.20;;
19111;SDS011;9688;51.906;8.376;2022-12-07T14:29:21;7.27;;;2.60;;
19111;SDS011;9688;51.906;8.376;2022-12-07T14:32:21;4.60;;;2.40;;
19111;SDS011;9688;51.906;8.376;2022-12-07T14:35:13;5.93;;;2.70;;
19111;SDS011;9688;51.906;8.376;2022-12-07T14:37:59;6.77;;;3.53;;
19111;SDS011;9688;51.906;8.376;2022-12-07T14:40:45;12.23;;;2.90;;
19111;SDS011;9688;51.906;8.376;2022-12-07T14:43:31;7.80;;;2.70;;
19111;SDS011;9688;51.906;8.376;2022-12-07T14:46:18;11.23;;;2.97;;
19111;SDS011;9688;51.906;8.376;2022-12-07T14:49:05;10.77;;;3.50;;
19111;SDS011;9688;51.906;8.376;2022-12-07T14:51:50;5.63;;;2.73;;
19111;SDS011;9688;51.906;8.376;2022-12-07T14:54:35;8.97;;;3.30;;
19111;SDS011;9688;51.906;8.376;2022-12-07T14:57:22;7.60;;;3.20;;
19111;SDS011;9688;51.906;8.376;2022-12-07T15:00:09;8.30;;;3.00;;
19111;SDS011;9688;51.906;8.376;2022-12-07T15:03:02;10.10;;;3.03;;
19111;SDS011;9688;51.906;8.376;2022-12-07T15:05:48;9.70;;;2.70;;
19111;SDS011;9688;51.906;8.376;2022-12-07T15:08:34;6.10;;;3.00;;
19111;SDS011;9688;51.906;8.376;2022-12-07T15:11:19;5.37;;;2.90;;
19111;SDS011;9688;51.906;8.376;2022-12-07T15:14:05;7.53;;;2.63;;
19111;SDS011;9688;51.906;8.376;2022-12-07T15:16:55;4.20;;;2.57;;
19111;SDS011;9688;51.906;8.376;2022-12-07T15:19:42;9.43;;;3.17;;
19111;SDS011;9688;51.906;8.376;2022-12-07T15:22:29;8.77;;;2.80;;
19111;SDS011;9688;51.906;8.376;2022-12-07T15:25:16;9.20;;;3.30;;
19111;SDS011;9688;51.906;8.376;2022-12-07T15:28:07;11.93;;;3.20;;
19111;SDS011;9688;51.906;8.376;2022-12-07T15:31:10;12.43;;;3.60;;
19111;SDS011;9688;51.906;8.376;2022-12-07T15:34:01;8.53;;;3.20;;
19111;SDS011;9688;51.906;8.376;2022-12-07T15:36:49;11.37;;;3.53;;
19111;SDS011;9688;51.906;8.376;2022-12-07T15:39:34;10.60;;;3.40;;
19111;SDS011;9688;51.906;8.376;2022-12-07T15:42:21;10.37;;;3.67;;
19111;SDS011;9688;51.906;8.376;2022-12-07T15:45:07;17.00;;;4.33;;
19111;SDS011;9688;51.906;8.376;2022-12-07T15:47:53;12.07;;;3.77;;
19111;SDS011;9688;51.906;8.376;2022-12-07T15:50:41;10.53;;;3.30;;
19111;SDS011;9688;51.906;8.376;2022-12-07T15:53:27;8.93;;;3.63;;
19111;SDS011;9688;51.906;8.376;2022-12-07T15:56:13;7.53;;;3.60;;
19111;SDS011;9688;51.906;8.376;2022-12-07T15:58:59;6.93;;;2.93;;
19111;SDS011;9688;51.906;8.376;2022-12-07T16:01:47;11.67;;;4.17;;
19111;SDS011;9688;51.906;8.376;2022-12-07T16:04:32;14.57;;;3.83;;
19111;SDS011;9688;51.906;8.376;2022-12-07T16:07:19;11.50;;;3.70;;
19111;SDS011;9688;51.906;8.376;2022-12-07T16:10:08;12.87;;;4.13;;
19111;SDS011;9688;51.906;8.376;2022-12-07T16:12:54;12.73;;;3.77;;
19111;SDS011;9688;51.906;8.376;2022-12-07T16:15:41;10.60;;;4.10;;
19111;SDS011;9688;51.906;8.376;2022-12-07T16:18:27;11.83;;;4.03;;
19111;SDS011;9688;51.906;8.376;2022-12-07T16:21:14;14.40;;;3.43;;
19111;SDS011;9688;51.906;8.376;2022-12-07T16:24:00;13.67;;;3.87;;
19111;SDS011;9688;51.906;8.376;2022-12-07T16:26:47;7.03;;;3.90;;
19111;SDS011;9688;51.906;8.376;2022-12-07T16:29:34;12.17;;;4.07;;
19111;SDS011;9688;51.906;8.376;2022-12-07T16:32:20;15.53;;;5.53;;
19111;SDS011;9688;51.906;8.376;2022-12-07T16:35:07;16.93;;;5.23;;
19111;SDS011;9688;51.906;8.376;2022-12-07T16:37:56;14.10;;;4.70;;
19111;SDS011;9688;51.906;8.376;2022-12-07T16:40:43;19.70;;;4.80;;
19111;SDS011;9688;51.906;8.376;2022-12-07T16:43:30;11.93;;;4.67;;
19111;SDS011;9688;51.906;8.376;2022-12-07T16:46:17;11.17;;;4.80;;
19111;SDS011;9688;51.906;8.376;2022-12-07T16:49:03;16.90;;;4.87;;
19111;SDS011;9688;51.906;8.376;2022-12-07T16:51:49;11.73;;;4.57;;
19111;SDS011;9688;51.906;8.376;2022-12-07T16:54:36;14.87;;;6.47;;
19111;SDS011;9688;51.906;8.376;2022-12-07T16:57:22;17.13;;;5.53;;
19111;SDS011;9688;51.906;8.376;2022-12-07T17:00:09;15.67;;;5.07;;
19111;SDS011;9688;51.906;8.376;2022-12-07T17:02:56;10.83;;;4.43;;
19111;SDS011;9688;51.906;8.376;2022-12-07T17:05:43;10.87;;;4.13;;
19111;SDS011;9688;51.906;8.376;2022-12-07T17:08:30;9.73;;;4.03;;
19111;SDS011;9688;51.906;8.376;2022-12-07T17:11:16;9.00;;;3.43;;
19111;SDS011;9688;51.906;8.376;2022-12-07T17:14:06;8.13;;;3.53;;
19111;SDS011;9688;51.906;8.376;2022-12-07T17:17:16;10.37;;;3.97;;
19111;SDS011;9688;51.906;8.376;2022-12-07T17:20:06;11.83;;;4.43;;
19111;SDS011;9688;51.906;8.376;2022-12-07T17:22:54;15.37;;;5.00;;
19111;SDS011;9688;51.906;8.376;2022-12-07T17:25:40;7.53;;;3.40;;
19111;SDS011;9688;51.906;8.376;2022-12-07T17:28:26;12.70;;;3.90;;
19111;SDS011;9688;51.906;8.376;2022-12-07T17:31:12;10.30;;;3.90;;